createdAt,value
2023-02-17T00:02:16.006Z,87.29
2023-02-17T00:04:49.441Z,87.53
2023-02-17T00:07:16.860Z,87.57
2023-02-17T00:09:44.359Z,88.09
2023-02-17T00:12:11.809Z,87.38
2023-02-17T00:14:42.428Z,86.89
2023-02-17T00:17:09.845Z,86.63
2023-02-17T00:19:37.280Z,85.84
2023-02-17T00:22:05.401Z,85.79
2023-02-17T00:24:41.374Z,86.09
2023-02-17T00:27:08.893Z,86.70
2023-02-17T00:29:36.296Z,86.07
2023-02-17T00:32:04.297Z,86.53
2023-02-17T00:34:32.781Z,86.41
2023-02-17T00:37:00.151Z,86.98
2023-02-17T00:39:27.849Z,87.68
2023-02-17T00:41:55.173Z,88.32
2023-02-17T00:44:25.641Z,88.77
2023-02-17T00:46:53.166Z,89.40
2023-02-17T00:49:23.936Z,89.43
2023-02-17T00:52:02.174Z,89.78
2023-02-17T00:54:29.754Z,89.83
2023-02-17T00:56:57.255Z,89.83
2023-02-17T00:59:24.736Z,89.91
2023-02-17T01:01:52.169Z,90.04
2023-02-17T01:04:19.622Z,90.28
2023-02-17T01:06:47.147Z,90.82
2023-02-17T01:09:15.450Z,91.71
2023-02-17T01:11:43.999Z,92.42
2023-02-17T01:14:13.445Z,92.97
2023-02-17T01:16:45.086Z,93.61
2023-02-17T01:19:15.237Z,94.10
2023-02-17T01:21:42.934Z,94.57
2023-02-17T01:24:12.549Z,93.99
2023-02-17T01:26:41.666Z,94.46
2023-02-17T01:29:09.546Z,94.12
2023-02-17T01:31:36.950Z,93.16
2023-02-17T01:34:05.390Z,92.68
2023-02-17T01:36:33.494Z,92.31
2023-02-17T01:39:01.045Z,92.29
2023-02-17T01:41:29.150Z,91.30
2023-02-17T01:44:20.972Z,91.02
2023-02-17T01:46:50.769Z,91.46
2023-02-17T01:49:39.673Z,92.21
2023-02-17T01:52:24.164Z,93.03
2023-02-17T01:55:03.870Z,93.49
2023-02-17T01:57:35.519Z,93.83
2023-02-17T02:00:04.725Z,93.84
2023-02-17T02:02:32.748Z,93.94
2023-02-17T02:05:01.062Z,94.20
2023-02-17T02:07:32.570Z,94.12
2023-02-17T02:10:00.869Z,94.04
2023-02-17T02:12:31.331Z,93.62
2023-02-17T02:15:10.366Z,93.81
2023-02-17T02:18:09.269Z,93.63
2023-02-17T02:21:17.155Z,93.63
2023-02-17T02:24:02.184Z,93.17
2023-02-17T02:26:51.002Z,94.53
2023-02-17T02:29:33.365Z,94.81
2023-02-17T02:32:27.135Z,95.02
2023-02-17T02:35:06.666Z,94.89
2023-02-17T02:37:40.022Z,93.90
2023-02-17T02:40:09.468Z,92.81
2023-02-17T02:42:40.500Z,92.88
2023-02-17T02:45:10.371Z,92.91
2023-02-17T02:47:44.498Z,92.54
2023-02-17T02:50:19.385Z,92.63
2023-02-17T02:53:10.818Z,91.67
2023-02-17T02:55:53.821Z,91.22
2023-02-17T02:58:58.990Z,91.34
2023-02-17T03:01:44.627Z,92.36
2023-02-17T03:04:20.932Z,91.59
2023-02-17T03:07:01.535Z,90.85
2023-02-17T03:09:29.630Z,91.00
2023-02-17T03:11:58.520Z,90.72
2023-02-17T03:14:28.899Z,90.73
2023-02-17T03:16:56.276Z,91.66
2023-02-17T03:19:25.617Z,90.90
2023-02-17T03:22:09.593Z,90.78
2023-02-17T03:24:37.989Z,90.71
2023-02-17T03:27:05.448Z,91.17
2023-02-17T03:29:32.957Z,91.40
2023-02-17T03:32:01.077Z,90.83
2023-02-17T03:34:28.838Z,91.58
2023-02-17T03:36:56.313Z,91.68
2023-02-17T03:39:23.970Z,92.07
2023-02-17T03:41:53.665Z,92.60
2023-02-17T03:44:22.190Z,93.19
2023-02-17T03:46:49.693Z,92.54
2023-02-17T03:49:18.229Z,92.58
2023-02-17T03:51:45.663Z,92.40
2023-02-17T03:54:21.057Z,91.82
2023-02-17T03:56:48.133Z,91.39
2023-02-17T03:59:15.714Z,90.97
2023-02-17T04:01:45.200Z,91.42
2023-02-17T04:04:12.709Z,91.74
2023-02-17T04:06:41.161Z,90.79
2023-02-17T04:09:08.740Z,89.65
2023-02-17T04:11:36.128Z,89.15
2023-02-17T04:14:05.636Z,88.65
2023-02-17T04:16:33.125Z,88.13
2023-02-17T04:19:00.402Z,88.45
2023-02-17T04:21:29.056Z,88.62
2023-02-17T04:23:56.398Z,89.70
2023-02-17T04:26:25.859Z,91.25
2023-02-17T04:28:54.666Z,92.47
2023-02-17T04:31:22.190Z,93.91
2023-02-17T04:33:55.500Z,94.63
2023-02-17T04:36:23.418Z,93.38
2023-02-17T04:38:50.995Z,92.17
2023-02-17T04:41:18.351Z,92.17
2023-02-17T04:43:45.348Z,91.60
2023-02-17T04:46:12.910Z,89.44
2023-02-17T04:48:40.283Z,88.40
2023-02-17T04:51:07.898Z,88.50
2023-02-17T04:53:35.347Z,89.44
2023-02-17T04:56:04.355Z,89.92
2023-02-17T04:58:31.760Z,91.78
2023-02-17T05:01:01.277Z,91.62
2023-02-17T05:03:28.887Z,92.63
2023-02-17T05:05:58.595Z,92.52
2023-02-17T05:08:25.786Z,93.40
2023-02-17T05:10:55.138Z,92.02
2023-02-17T05:13:22.634Z,91.35
2023-02-17T05:15:50.201Z,91.29
2023-02-17T05:18:18.559Z,92.56
2023-02-17T05:20:46.059Z,94.09
2023-02-17T05:23:13.478Z,94.75
2023-02-17T05:25:41.252Z,95.38
2023-02-17T05:28:09.597Z,96.62
2023-02-17T05:30:37.813Z,95.68
2023-02-17T05:33:05.433Z,95.73
2023-02-17T05:35:35.656Z,95.64
2023-02-17T05:38:04.903Z,96.38
2023-02-17T05:40:32.502Z,97.19
2023-02-17T05:43:00.879Z,98.05
2023-02-17T05:45:28.222Z,97.83
2023-02-17T05:47:55.727Z,98.02
2023-02-17T05:50:23.220Z,98.87
2023-02-17T05:52:50.672Z,98.92
2023-02-17T05:55:18.114Z,98.47
2023-02-17T05:57:45.600Z,97.99
2023-02-17T06:00:13.511Z,97.70
2023-02-17T06:02:40.658Z,97.82
2023-02-17T06:05:09.418Z,97.59
2023-02-17T06:07:36.506Z,97.83
2023-02-17T06:10:04.301Z,98.09
2023-02-17T06:12:31.868Z,98.67
2023-02-17T06:14:59.272Z,98.73
2023-02-17T06:17:27.047Z,97.83
2023-02-17T06:20:05.393Z,96.94
2023-02-17T06:22:33.000Z,96.91
2023-02-17T06:25:00.433Z,96.88
2023-02-17T06:27:27.879Z,96.94
2023-02-17T06:29:55.339Z,96.92
2023-02-17T06:32:23.900Z,96.23
2023-02-17T06:34:53.219Z,96.63
2023-02-17T06:37:21.804Z,97.08
2023-02-17T06:39:49.212Z,97.33
2023-02-17T06:42:17.117Z,98.27
2023-02-17T06:44:44.610Z,100.00
2023-02-17T06:47:12.168Z,100.00
2023-02-17T06:49:40.849Z,99.17
2023-02-17T06:52:08.518Z,95.65
2023-02-17T06:54:35.948Z,94.73
2023-02-17T06:57:03.553Z,95.25
2023-02-17T06:59:33.396Z,95.05
2023-02-17T07:02:02.459Z,95.06
2023-02-17T07:04:30.025Z,96.08
2023-02-17T07:06:57.421Z,97.63
2023-02-17T07:09:24.944Z,98.57
2023-02-17T07:11:52.046Z,99.51
2023-02-17T07:14:19.304Z,100.00
2023-02-17T07:16:46.734Z,100.00
2023-02-17T07:19:14.315Z,100.00
2023-02-17T07:21:48.776Z,100.00
2023-02-17T07:24:17.401Z,100.00
2023-02-17T07:26:44.949Z,100.00
2023-02-17T07:29:12.196Z,100.00
2023-02-17T07:31:39.704Z,100.00
2023-02-17T07:34:07.116Z,100.00
2023-02-17T07:36:34.639Z,100.00
2023-02-17T07:39:04.109Z,100.00
2023-02-17T07:41:33.813Z,100.00
2023-02-17T07:44:00.946Z,100.00
2023-02-17T07:46:28.005Z,100.00
2023-02-17T07:48:57.283Z,100.00
2023-02-17T07:51:25.362Z,100.00
2023-02-17T07:53:52.679Z,100.00
2023-02-17T07:56:21.908Z,100.00
2023-02-17T07:58:49.536Z,100.00
2023-02-17T08:01:22.577Z,100.00
2023-02-17T08:03:51.195Z,100.00
2023-02-17T08:06:23.425Z,100.00
2023-02-17T08:09:20.998Z,100.00
2023-02-17T08:12:06.518Z,100.00
2023-02-17T08:14:33.744Z,100.00
2023-02-17T08:17:02.194Z,100.00
2023-02-17T08:19:39.641Z,100.00
2023-02-17T08:22:13.906Z,100.00
2023-02-17T08:24:41.294Z,100.00
2023-02-17T08:27:09.759Z,100.00
2023-02-17T08:29:37.317Z,100.00
2023-02-17T08:32:05.087Z,100.00
2023-02-17T08:34:35.512Z,100.00
2023-02-17T08:37:04.788Z,100.00
2023-02-17T08:39:33.116Z,100.00
2023-02-17T08:42:02.188Z,100.00
2023-02-17T08:44:29.334Z,100.00
2023-02-17T08:46:57.706Z,100.00
2023-02-17T08:49:27.204Z,100.00
2023-02-17T08:51:54.752Z,100.00
2023-02-17T08:54:22.372Z,100.00
2023-02-17T08:56:49.710Z,100.00
2023-02-17T08:59:18.189Z,100.00
2023-02-17T09:01:45.582Z,100.00
2023-02-17T09:04:14.928Z,100.00
2023-02-17T09:06:48.651Z,100.00
2023-02-17T09:09:18.670Z,100.00
2023-02-17T09:11:47.112Z,100.00
2023-02-17T09:14:15.223Z,100.00
2023-02-17T09:16:42.504Z,100.00
2023-02-17T09:19:10.163Z,100.00
2023-02-17T09:21:37.527Z,100.00
2023-02-17T09:24:05.144Z,100.00
2023-02-17T09:29:17.776Z,100.00
2023-02-17T09:31:46.468Z,100.00
2023-02-17T09:34:15.841Z,100.00
2023-02-17T09:36:43.475Z,100.00
2023-02-17T09:39:14.448Z,100.00
2023-02-17T09:41:55.569Z,100.00
2023-02-17T09:44:26.491Z,100.00
2023-02-17T09:47:03.272Z,100.00
2023-02-17T09:49:39.373Z,100.00
2023-02-17T09:52:10.680Z,100.00
2023-02-17T09:54:48.457Z,100.00
2023-02-17T09:57:21.164Z,100.00
2023-02-17T10:00:16.950Z,100.00
2023-02-17T10:02:58.204Z,100.00
2023-02-17T10:05:34.738Z,100.00
2023-02-17T10:08:17.613Z,100.00
2023-02-17T10:11:01.979Z,100.00
2023-02-17T10:13:32.488Z,100.00
2023-02-17T10:16:10.569Z,100.00
2023-02-17T10:18:49.009Z,100.00
2023-02-17T10:21:25.906Z,100.00
2023-02-17T10:23:53.199Z,100.00
2023-02-17T10:26:43.137Z,100.00
2023-02-17T10:29:43.346Z,100.00
2023-02-17T10:32:29.134Z,100.00
2023-02-17T10:35:02.430Z,100.00
2023-02-17T10:37:38.896Z,100.00
2023-02-17T10:40:18.463Z,100.00
2023-02-17T10:42:47.139Z,100.00
2023-02-17T10:45:32.254Z,100.00
2023-02-17T10:48:22.636Z,100.00
2023-02-17T10:50:51.033Z,100.00
2023-02-17T10:53:23.535Z,100.00
2023-02-17T10:55:54.788Z,100.00
2023-02-17T10:58:37.338Z,100.00
2023-02-17T11:01:07.998Z,100.00
2023-02-17T11:03:41.770Z,100.00
2023-02-17T11:06:20.189Z,100.00
2023-02-17T11:08:52.552Z,100.00
2023-02-17T11:11:22.837Z,100.00
2023-02-17T11:14:25.169Z,100.00
2023-02-17T11:17:00.648Z,100.00
2023-02-17T11:19:34.742Z,100.00
2023-02-17T11:22:06.279Z,100.00
2023-02-17T11:24:35.794Z,100.00
2023-02-17T11:27:25.598Z,100.00
2023-02-17T11:30:16.018Z,100.00
2023-02-17T11:32:43.409Z,100.00
2023-02-17T11:35:46.776Z,100.00
2023-02-17T11:38:20.864Z,100.00
2023-02-17T11:40:59.378Z,100.00
2023-02-17T11:43:31.221Z,100.00
2023-02-17T11:46:02.472Z,100.00
2023-02-17T11:48:54.365Z,100.00
2023-02-17T11:52:01.166Z,100.00
2023-02-17T11:54:44.461Z,100.00
2023-02-17T11:57:17.843Z,100.00
2023-02-17T12:00:01.749Z,98.45
2023-02-17T12:02:41.295Z,99.34
2023-02-17T12:05:23.584Z,100.00
2023-02-17T12:08:10.849Z,100.00
2023-02-17T12:11:26.023Z,99.63
2023-02-17T12:14:22.338Z,98.18
2023-02-17T12:17:04.113Z,98.47
2023-02-17T12:19:55.461Z,99.33
2023-02-17T12:22:49.975Z,98.28
2023-02-17T12:25:32.079Z,98.84
2023-02-17T12:28:05.466Z,97.52
2023-02-17T12:31:01.017Z,96.89
2023-02-17T12:33:55.243Z,96.01
2023-02-17T12:36:29.397Z,96.00
2023-02-17T12:39:21.941Z,95.94
2023-02-17T12:42:04.640Z,95.34
2023-02-17T12:44:41.334Z,95.65
2023-02-17T12:47:38.132Z,98.26
2023-02-17T12:50:23.199Z,100.00
2023-02-17T12:52:57.599Z,100.00
2023-02-17T12:55:48.534Z,100.00
2023-02-17T12:58:20.482Z,100.00
2023-02-17T13:00:57.754Z,100.00
2023-02-17T13:03:31.349Z,100.00
2023-02-17T13:06:03.060Z,100.00
2023-02-17T13:08:40.239Z,100.00
2023-02-17T13:11:14.185Z,100.00
2023-02-17T13:13:41.371Z,100.00
2023-02-17T13:16:16.318Z,100.00
2023-02-17T13:18:46.216Z,100.00
2023-02-17T13:21:27.776Z,100.00
2023-02-17T13:24:03.072Z,100.00
2023-02-17T13:26:45.754Z,100.00
2023-02-17T13:29:32.426Z,100.00
2023-02-17T13:32:11.912Z,100.00
2023-02-17T13:34:43.542Z,100.00
2023-02-17T13:37:19.416Z,100.00
2023-02-17T13:39:47.169Z,100.00
2023-02-17T13:42:54.583Z,100.00
2023-02-17T13:45:34.074Z,100.00
2023-02-17T13:48:13.477Z,100.00
2023-02-17T13:50:50.158Z,100.00
2023-02-17T13:53:40.135Z,100.00
2023-02-17T13:56:10.811Z,100.00
2023-02-17T13:58:42.528Z,100.00
2023-02-17T14:01:29.158Z,100.00
2023-02-17T14:03:57.284Z,100.00
2023-02-17T14:06:33.097Z,100.00
2023-02-17T14:09:00.563Z,100.00
2023-02-17T14:11:31.417Z,100.00
2023-02-17T14:14:00.886Z,100.00
2023-02-17T14:16:33.822Z,100.00
2023-02-17T14:19:21.445Z,100.00
2023-02-17T14:22:06.410Z,100.00
2023-02-17T14:24:37.183Z,100.00
2023-02-17T14:27:17.056Z,100.00
2023-02-17T14:29:46.751Z,100.00
2023-02-17T14:32:35.501Z,100.00
2023-02-17T14:35:15.601Z,100.00
2023-02-17T14:37:43.701Z,100.00
2023-02-17T14:40:19.549Z,100.00
2023-02-17T14:42:47.731Z,100.00
2023-02-17T14:45:16.217Z,100.00
2023-02-17T14:47:43.988Z,100.00
2023-02-17T14:50:13.811Z,100.00
2023-02-17T14:52:49.927Z,100.00
2023-02-17T14:55:32.345Z,100.00
2023-02-17T14:58:01.418Z,100.00
2023-02-17T15:00:29.936Z,100.00
2023-02-17T15:02:59.145Z,100.00
2023-02-17T15:05:27.156Z,100.00
2023-02-17T15:07:54.687Z,100.00
2023-02-17T15:10:29.403Z,100.00
2023-02-17T15:12:58.268Z,100.00
2023-02-17T15:15:26.104Z,100.00
2023-02-17T15:17:53.835Z,100.00
2023-02-17T15:20:21.338Z,100.00
2023-02-17T15:22:53.029Z,100.00
2023-02-17T15:25:24.760Z,100.00
2023-02-17T15:27:52.503Z,100.00
2023-02-17T15:30:21.711Z,100.00
2023-02-17T15:32:49.791Z,100.00
2023-02-17T15:35:26.882Z,100.00
2023-02-17T15:37:55.045Z,100.00
2023-02-17T15:40:25.772Z,100.00
2023-02-17T15:42:58.113Z,100.00
2023-02-17T15:45:26.782Z,100.00
2023-02-17T15:48:04.802Z,100.00
2023-02-17T15:50:33.663Z,100.00
2023-02-17T15:53:01.708Z,100.00
2023-02-17T15:55:29.699Z,100.00
2023-02-17T15:58:02.980Z,100.00
2023-02-17T16:00:36.923Z,100.00
2023-02-17T16:03:10.868Z,100.00
2023-02-17T16:05:38.731Z,100.00
2023-02-17T16:08:06.682Z,100.00
2023-02-17T16:10:36.099Z,100.00
2023-02-17T16:13:04.129Z,100.00
2023-02-17T16:15:33.429Z,100.00
2023-02-17T16:18:00.874Z,100.00
2023-02-17T16:20:34.826Z,100.00
2023-02-17T16:23:04.810Z,99.26
2023-02-17T16:25:32.619Z,97.77
2023-02-17T16:28:00.290Z,95.71
2023-02-17T16:30:32.578Z,94.50
2023-02-17T16:33:02.346Z,93.01
2023-02-17T16:35:33.620Z,94.58
2023-02-17T16:38:10.384Z,95.20
2023-02-17T16:40:47.552Z,95.19
2023-02-17T16:43:17.458Z,95.01
2023-02-17T16:45:59.396Z,94.74
2023-02-17T16:48:31.325Z,94.43
2023-02-17T16:51:05.470Z,94.14
2023-02-17T16:53:39.578Z,94.10
2023-02-17T16:56:16.797Z,94.77
2023-02-17T16:58:45.185Z,97.70
2023-02-17T17:01:14.020Z,100.00
2023-02-17T17:03:43.867Z,100.00
2023-02-17T17:06:23.007Z,100.00
2023-02-17T17:08:51.165Z,100.00
2023-02-17T17:11:25.349Z,100.00
2023-02-17T17:13:54.433Z,100.00
2023-02-17T17:16:33.969Z,100.00
2023-02-17T17:19:03.438Z,100.00
2023-02-17T17:21:31.835Z,100.00
2023-02-17T17:24:04.337Z,100.00
2023-02-17T17:26:40.502Z,100.00
2023-02-17T17:29:11.172Z,100.00
2023-02-17T17:31:40.314Z,100.00
2023-02-17T17:34:16.804Z,100.00
2023-02-17T17:36:47.032Z,100.00
2023-02-17T17:39:17.968Z,100.00
2023-02-17T17:41:46.485Z,100.00
2023-02-17T17:44:14.861Z,100.00
2023-02-17T17:46:43.577Z,100.00
2023-02-17T17:49:15.506Z,100.00
2023-02-17T17:51:44.880Z,100.00
2023-02-17T17:54:14.000Z,100.00
2023-02-17T17:56:43.660Z,100.00
2023-02-17T17:59:13.381Z,100.00
2023-02-17T18:01:42.746Z,100.00
2023-02-17T18:04:16.952Z,100.00
2023-02-17T18:06:49.270Z,100.00
2023-02-17T18:09:31.334Z,100.00
2023-02-17T18:12:08.211Z,100.00
2023-02-17T18:14:39.936Z,100.00
2023-02-17T18:17:13.109Z,100.00
2023-02-17T18:19:44.349Z,100.00
2023-02-17T18:22:13.154Z,100.00
2023-02-17T18:24:42.302Z,100.00
2023-02-17T18:27:10.779Z,99.96
2023-02-17T18:29:40.248Z,98.72
2023-02-17T18:32:08.942Z,98.82
2023-02-17T18:34:37.774Z,99.84
2023-02-17T18:37:07.916Z,100.00
2023-02-17T18:39:37.214Z,100.00
2023-02-17T18:42:13.299Z,100.00
2023-02-17T18:44:42.489Z,100.00
2023-02-17T18:47:11.786Z,100.00
2023-02-17T18:49:40.549Z,100.00
2023-02-17T18:52:12.281Z,100.00
2023-02-17T18:54:45.649Z,100.00
2023-02-17T18:57:14.270Z,100.00
2023-02-17T18:59:42.674Z,100.00
2023-02-17T19:02:13.254Z,100.00
2023-02-17T19:04:46.563Z,100.00
2023-02-17T19:07:14.908Z,100.00
2023-02-17T19:09:44.326Z,100.00
2023-02-17T19:12:15.717Z,100.00
2023-02-17T19:14:45.575Z,99.38
2023-02-17T19:17:19.978Z,99.36
2023-02-17T19:19:47.815Z,99.65
2023-02-17T19:22:17.364Z,98.54
2023-02-17T19:24:46.404Z,98.96
2023-02-17T19:27:16.097Z,98.14
2023-02-17T19:29:44.348Z,97.11
2023-02-17T19:32:13.149Z,97.28
2023-02-17T19:34:48.553Z,97.51
2023-02-17T19:37:16.673Z,97.42
2023-02-17T19:39:45.846Z,97.30
2023-02-17T19:42:19.807Z,97.96
2023-02-17T19:44:48.466Z,96.90
2023-02-17T19:47:15.996Z,96.64
2023-02-17T19:49:44.087Z,96.08
2023-02-17T19:52:13.388Z,96.02
2023-02-17T19:54:43.828Z,96.06
2023-02-17T19:57:11.734Z,95.92
2023-02-17T19:59:48.812Z,95.56
2023-02-17T20:02:17.612Z,95.73
2023-02-17T20:04:46.584Z,96.23
2023-02-17T20:07:15.495Z,95.44
2023-02-17T20:09:43.592Z,95.95
2023-02-17T20:12:13.347Z,95.99
2023-02-17T20:14:43.682Z,96.43
2023-02-17T20:17:12.615Z,95.82
2023-02-17T20:19:43.274Z,96.24
2023-02-17T20:22:12.680Z,95.17
2023-02-17T20:24:42.982Z,95.59
2023-02-17T20:27:14.403Z,95.73
2023-02-17T20:29:43.891Z,94.94
2023-02-17T20:32:18.199Z,94.56
2023-02-17T20:34:47.710Z,94.70
2023-02-17T20:37:17.776Z,94.44
2023-02-17T20:39:46.563Z,95.08
2023-02-17T20:42:20.364Z,95.13
2023-02-17T20:44:51.068Z,96.30
2023-02-17T20:47:21.996Z,96.14
2023-02-17T20:49:59.473Z,95.58
2023-02-17T20:52:36.849Z,96.06
2023-02-17T20:55:05.057Z,94.93
2023-02-17T20:57:32.906Z,94.76
2023-02-17T21:00:00.838Z,95.75
2023-02-17T21:02:28.760Z,95.30
2023-02-17T21:04:57.158Z,95.66
2023-02-17T21:07:25.472Z,96.04
2023-02-17T21:09:55.576Z,96.13
2023-02-17T21:12:23.492Z,97.30
2023-02-17T21:14:51.366Z,97.39
2023-02-17T21:17:22.435Z,98.48
2023-02-17T21:19:52.707Z,100.00
2023-02-17T21:22:26.955Z,100.00
2023-02-17T21:24:55.107Z,100.00
2023-02-17T21:27:30.576Z,100.00
2023-02-17T21:29:58.255Z,100.00
2023-02-17T21:32:26.542Z,100.00
2023-02-17T21:34:54.877Z,100.00
2023-02-17T21:37:22.565Z,100.00
2023-02-17T21:39:50.687Z,100.00
2023-02-17T21:42:45.787Z,100.00
2023-02-17T21:45:15.489Z,100.00
2023-02-17T21:47:43.337Z,100.00
2023-02-17T21:50:12.115Z,100.00
2023-02-17T21:52:39.811Z,100.00
2023-02-17T21:55:09.662Z,100.00
2023-02-17T21:57:37.138Z,100.00
2023-02-17T22:00:08.482Z,100.00
2023-02-17T22:02:39.815Z,100.00
2023-02-17T22:05:09.089Z,100.00
2023-02-17T22:07:36.761Z,100.00
2023-02-17T22:10:14.222Z,100.00
2023-02-17T22:12:41.715Z,100.00
2023-02-17T22:15:10.899Z,100.00
2023-02-17T22:17:39.181Z,100.00
2023-02-17T22:20:08.223Z,100.00
2023-02-17T22:22:35.572Z,100.00
2023-02-17T22:25:03.133Z,100.00
2023-02-17T22:27:30.546Z,100.00
2023-02-17T22:29:58.140Z,100.00
2023-02-17T22:32:26.458Z,100.00
2023-02-17T22:34:55.018Z,100.00
2023-02-17T22:37:22.420Z,100.00
2023-02-17T22:39:54.122Z,100.00
2023-02-17T22:42:23.466Z,100.00
2023-02-17T22:44:51.240Z,100.00
2023-02-17T22:47:19.428Z,100.00
2023-02-17T22:49:46.898Z,100.00
2023-02-17T22:52:14.319Z,100.00
2023-02-17T22:54:41.846Z,100.00
2023-02-17T22:57:11.252Z,100.00
2023-02-17T22:59:38.356Z,100.00
2023-02-17T23:02:06.748Z,100.00
2023-02-17T23:04:34.320Z,100.00
2023-02-17T23:07:01.343Z,100.00
2023-02-17T23:09:28.658Z,100.00
2023-02-17T23:11:58.506Z,100.00
2023-02-17T23:14:35.255Z,100.00
2023-02-17T23:17:06.126Z,100.00
2023-02-17T23:19:34.846Z,100.00
2023-02-17T23:22:05.362Z,100.00
2023-02-17T23:24:34.239Z,100.00
2023-02-17T23:27:02.081Z,100.00
2023-02-17T23:29:31.047Z,100.00
2023-02-17T23:31:59.008Z,100.00
2023-02-17T23:34:28.480Z,100.00
2023-02-17T23:36:55.782Z,100.00
2023-02-17T23:39:23.218Z,100.00
2023-02-17T23:41:50.701Z,100.00
2023-02-17T23:44:18.636Z,100.00
2023-02-17T23:46:46.967Z,100.00
2023-02-17T23:49:17.514Z,100.00
2023-02-17T23:51:45.341Z,100.00
2023-02-17T23:54:15.437Z,100.00
2023-02-17T23:56:44.152Z,100.00
2023-02-17T23:59:11.937Z,100.00
